createdAt,value
2019-02-17T00:02:13.749Z,17.20
2019-02-17T00:04:40.119Z,15.37
2019-02-17T00:07:06.509Z,16.43
2019-02-17T00:09:32.998Z,14.83
2019-02-17T00:11:59.460Z,14.90
2019-02-17T00:14:25.835Z,15.17
2019-02-17T00:16:52.458Z,14.57
2019-02-17T00:19:18.923Z,14.83
2019-02-17T00:21:45.405Z,16.10
2019-02-17T00:24:11.785Z,15.67
2019-02-17T00:26:38.269Z,14.33
2019-02-17T00:29:04.692Z,14.97
2019-02-17T00:31:31.009Z,14.83
2019-02-17T00:33:57.610Z,13.83
2019-02-17T00:36:24.080Z,15.07
2019-02-17T00:38:50.591Z,14.57
2019-02-17T00:41:16.996Z,14.87
2019-02-17T00:43:43.430Z,14.23
2019-02-17T00:46:10.012Z,14.20
2019-02-17T00:48:36.460Z,13.67
2019-02-17T00:51:02.969Z,14.70
2019-02-17T00:53:29.247Z,13.50
2019-02-17T00:55:55.760Z,13.53
2019-02-17T00:58:22.140Z,16.13
2019-02-17T01:00:48.701Z,14.33
2019-02-17T01:03:15.157Z,14.40
2019-02-17T01:05:41.755Z,15.23
2019-02-17T01:08:08.278Z,14.00
2019-02-17T01:10:34.580Z,15.37
2019-02-17T01:13:01.129Z,13.03
2019-02-17T01:15:27.630Z,11.20
2019-02-17T01:17:54.260Z,13.13
2019-02-17T01:20:20.762Z,13.00
2019-02-17T01:22:47.204Z,11.87
2019-02-17T01:25:13.538Z,13.00
2019-02-17T01:27:39.952Z,15.10
2019-02-17T01:30:10.945Z,12.23
2019-02-17T01:32:37.230Z,12.30
2019-02-17T01:35:04.719Z,10.83
2019-02-17T01:37:31.137Z,11.47
2019-02-17T01:39:58.927Z,11.73
2019-02-17T01:42:25.213Z,12.77
2019-02-17T01:44:51.683Z,11.90
2019-02-17T01:47:18.034Z,12.83
2019-02-17T01:49:44.427Z,11.77
2019-02-17T01:52:10.833Z,12.50
2019-02-17T01:54:37.233Z,11.33
2019-02-17T01:57:04.020Z,11.60
2019-02-17T01:59:31.060Z,12.33
2019-02-17T02:01:57.570Z,13.90
2019-02-17T02:04:24.168Z,12.83
2019-02-17T02:06:50.635Z,12.97
2019-02-17T02:09:17.506Z,12.27
2019-02-17T02:11:43.933Z,11.20
2019-02-17T02:14:10.274Z,9.87
2019-02-17T02:16:36.737Z,9.27
2019-02-17T02:19:03.367Z,9.97
2019-02-17T02:21:29.699Z,10.80
2019-02-17T02:23:56.155Z,9.87
2019-02-17T02:26:22.680Z,9.73
2019-02-17T02:28:49.174Z,9.13
2019-02-17T02:31:15.486Z,8.67
2019-02-17T02:33:41.977Z,8.50
2019-02-17T02:36:08.650Z,8.20
2019-02-17T02:38:35.203Z,8.50
2019-02-17T02:41:01.646Z,7.67
2019-02-17T02:43:28.433Z,6.63
2019-02-17T02:45:54.942Z,7.83
2019-02-17T02:48:21.461Z,7.77
2019-02-17T02:50:47.877Z,6.73
2019-02-17T02:53:14.416Z,6.60
2019-02-17T02:55:40.839Z,8.50
2019-02-17T02:58:07.307Z,8.90
2019-02-17T03:00:33.926Z,7.80
2019-02-17T03:03:00.360Z,8.53
2019-02-17T03:05:26.826Z,7.67
2019-02-17T03:07:53.386Z,6.80
2019-02-17T03:10:19.890Z,7.13
2019-02-17T03:12:46.429Z,6.33
2019-02-17T03:15:12.936Z,6.20
2019-02-17T03:17:39.578Z,6.73
2019-02-17T03:20:08.575Z,6.30
2019-02-17T03:22:35.055Z,6.60
2019-02-17T03:25:01.648Z,7.20
2019-02-17T03:27:27.957Z,6.53
2019-02-17T03:30:04.484Z,7.13
2019-02-17T03:32:22.829Z,6.00
2019-02-17T03:34:49.327Z,5.70
2019-02-17T03:37:15.802Z,5.83
2019-02-17T03:39:42.305Z,5.20
2019-02-17T03:42:08.738Z,5.20
2019-02-17T03:44:35.239Z,5.73
2019-02-17T03:47:01.690Z,5.07
2019-02-17T03:49:28.152Z,6.37
2019-02-17T03:51:54.563Z,5.17
2019-02-17T03:54:20.949Z,5.10
2019-02-17T03:56:47.594Z,4.77
2019-02-17T03:59:14.159Z,5.70
2019-02-17T04:01:40.631Z,5.33
2019-02-17T04:04:07.286Z,5.77
2019-02-17T04:06:33.637Z,5.47
2019-02-17T04:09:00.133Z,5.33
2019-02-17T04:11:26.522Z,4.93
2019-02-17T04:13:52.978Z,5.43
2019-02-17T04:16:19.482Z,6.10
2019-02-17T04:18:45.991Z,5.47
2019-02-17T04:21:12.490Z,5.70
2019-02-17T04:23:38.955Z,4.90
2019-02-17T04:26:05.460Z,4.33
2019-02-17T04:28:31.996Z,4.30
2019-02-17T04:30:58.566Z,4.27
2019-02-17T04:33:25.185Z,4.77
2019-02-17T04:35:51.747Z,4.93
2019-02-17T04:38:18.396Z,4.00
2019-02-17T04:40:44.737Z,3.33
2019-02-17T04:43:11.329Z,4.87
2019-02-17T04:45:37.656Z,3.77
2019-02-17T04:48:04.344Z,4.50
2019-02-17T04:50:30.888Z,4.13
2019-02-17T04:52:57.456Z,3.03
2019-02-17T04:55:23.923Z,3.50
2019-02-17T04:57:50.492Z,3.07
2019-02-17T05:00:17.012Z,3.40
2019-02-17T05:02:43.522Z,2.97
2019-02-17T05:05:10.032Z,3.27
2019-02-17T05:07:36.512Z,2.87
2019-02-17T05:10:03.440Z,3.50
2019-02-17T05:12:29.899Z,3.37
2019-02-17T05:14:56.212Z,3.63
2019-02-17T05:17:22.561Z,3.50
2019-02-17T05:19:49.079Z,3.33
2019-02-17T05:22:15.658Z,3.70
2019-02-17T05:24:42.180Z,3.60
2019-02-17T05:27:08.664Z,3.80
2019-02-17T05:29:35.171Z,3.47
2019-02-17T05:32:01.646Z,3.27
2019-02-17T05:34:27.977Z,3.63
2019-02-17T05:36:54.319Z,3.23
2019-02-17T05:39:20.692Z,3.07
2019-02-17T05:41:47.184Z,2.90
2019-02-17T05:44:13.754Z,2.87
2019-02-17T05:46:40.318Z,3.83
2019-02-17T05:49:06.684Z,3.50
2019-02-17T05:51:33.095Z,3.17
2019-02-17T05:53:59.572Z,4.73
2019-02-17T05:56:26.068Z,3.20
2019-02-17T05:58:52.467Z,2.87
2019-02-17T06:01:18.991Z,2.67
2019-02-17T06:03:45.282Z,3.07
2019-02-17T06:06:11.789Z,3.50
2019-02-17T06:08:38.222Z,2.80
2019-02-17T06:11:04.715Z,3.40
2019-02-17T06:13:30.985Z,4.23
2019-02-17T06:15:57.404Z,5.13
2019-02-17T06:18:23.808Z,4.03
2019-02-17T06:20:50.290Z,3.90
2019-02-17T06:23:16.649Z,3.90
2019-02-17T06:25:43.274Z,3.70
2019-02-17T06:28:09.686Z,4.00
2019-02-17T06:30:36.175Z,3.73
2019-02-17T06:33:02.834Z,3.40
2019-02-17T06:35:29.308Z,3.67
2019-02-17T06:37:55.700Z,3.33
2019-02-17T06:40:21.965Z,3.83
2019-02-17T06:42:48.572Z,4.00
2019-02-17T06:45:15.041Z,3.60
2019-02-17T06:47:41.335Z,3.17
2019-02-17T06:50:08.850Z,2.70
2019-02-17T06:52:35.163Z,3.00
2019-02-17T06:55:06.345Z,3.10
2019-02-17T06:57:34.762Z,2.87
2019-02-17T07:00:08.754Z,2.60
2019-02-17T07:02:35.233Z,2.80
2019-02-17T07:05:03.642Z,3.13
2019-02-17T07:07:30.328Z,2.60
2019-02-17T07:09:56.833Z,2.77
2019-02-17T07:12:23.164Z,2.73
2019-02-17T07:14:49.504Z,2.50
2019-02-17T07:17:16.007Z,2.67
2019-02-17T07:19:42.502Z,2.57
2019-02-17T07:22:08.995Z,2.80
2019-02-17T07:24:35.414Z,1.77
2019-02-17T07:27:01.851Z,2.83
2019-02-17T07:29:28.330Z,2.53
2019-02-17T07:31:54.705Z,3.00
2019-02-17T07:34:21.157Z,2.93
2019-02-17T07:36:47.711Z,2.03
2019-02-17T07:39:14.208Z,2.50
2019-02-17T07:41:40.622Z,2.20
2019-02-17T07:44:07.190Z,2.43
2019-02-17T07:46:33.690Z,2.27
2019-02-17T07:49:01.121Z,2.50
2019-02-17T07:51:27.649Z,2.70
2019-02-17T07:53:53.933Z,2.80
2019-02-17T07:56:20.592Z,2.20
2019-02-17T07:58:47.113Z,2.57
2019-02-17T08:01:13.479Z,2.77
2019-02-17T08:03:39.995Z,1.70
2019-02-17T08:06:06.585Z,3.03
2019-02-17T08:08:33.020Z,1.80
2019-02-17T08:11:04.090Z,2.23
2019-02-17T08:13:29.424Z,1.83
2019-02-17T08:15:55.989Z,2.40
2019-02-17T08:18:24.356Z,1.93
2019-02-17T08:20:50.831Z,2.70
2019-02-17T08:23:17.457Z,3.13
2019-02-17T08:25:44.175Z,1.77
2019-02-17T08:28:10.557Z,2.57
2019-02-17T08:30:37.047Z,1.83
2019-02-17T08:33:03.542Z,2.43
2019-02-17T08:35:29.920Z,1.83
2019-02-17T08:37:56.412Z,1.90
2019-02-17T08:40:22.923Z,1.90
2019-02-17T08:42:49.473Z,2.50
2019-02-17T08:45:16.053Z,1.60
2019-02-17T08:47:42.667Z,1.80
2019-02-17T08:50:10.167Z,2.27
2019-02-17T08:52:36.764Z,2.80
2019-02-17T08:55:06.035Z,1.80
2019-02-17T08:57:32.571Z,1.93
2019-02-17T08:59:59.045Z,1.60
2019-02-17T09:02:25.439Z,2.13
2019-02-17T09:04:51.914Z,2.83
2019-02-17T09:07:18.313Z,1.70
2019-02-17T09:09:44.762Z,1.83
2019-02-17T09:12:11.235Z,2.17
2019-02-17T09:14:37.716Z,2.80
2019-02-17T09:17:04.157Z,1.93
2019-02-17T09:19:30.545Z,1.40
2019-02-17T09:21:57.139Z,1.83
2019-02-17T09:24:23.730Z,2.40
2019-02-17T09:26:50.223Z,1.80
2019-02-17T09:29:16.704Z,2.73
2019-02-17T09:31:43.201Z,1.63
2019-02-17T09:34:09.690Z,2.43
2019-02-17T09:36:36.165Z,2.10
2019-02-17T09:39:06.270Z,3.30
2019-02-17T09:41:32.683Z,3.00
2019-02-17T09:43:59.181Z,2.60
2019-02-17T09:46:25.723Z,2.80
2019-02-17T09:48:52.333Z,2.17
2019-02-17T09:51:19.090Z,1.87
2019-02-17T09:53:45.728Z,3.57
2019-02-17T09:56:12.300Z,2.17
2019-02-17T09:58:38.787Z,2.17
2019-02-17T10:01:06.888Z,2.37
2019-02-17T10:03:33.498Z,2.67
2019-02-17T10:06:00.022Z,2.23
2019-02-17T10:08:26.516Z,2.33
2019-02-17T10:10:53.083Z,2.73
2019-02-17T10:13:19.534Z,1.90
2019-02-17T10:15:46.047Z,1.33
2019-02-17T10:18:12.676Z,2.27
2019-02-17T10:20:39.017Z,2.80
2019-02-17T10:23:05.611Z,4.23
2019-02-17T10:25:32.044Z,3.10
2019-02-17T10:27:58.625Z,2.17
2019-02-17T10:30:25.085Z,2.73
2019-02-17T10:32:51.499Z,1.80
2019-02-17T10:35:17.895Z,1.80
2019-02-17T10:37:44.384Z,4.37
2019-02-17T10:40:16.644Z,2.37
2019-02-17T10:42:43.118Z,3.87
2019-02-17T10:45:10.159Z,2.40
2019-02-17T10:47:37.839Z,3.47
2019-02-17T10:50:12.006Z,4.97
2019-02-17T10:52:38.647Z,2.73
2019-02-17T10:55:07.128Z,3.33
2019-02-17T10:57:33.600Z,2.60
2019-02-17T11:00:00.306Z,3.87
2019-02-17T11:02:26.915Z,2.03
2019-02-17T11:04:53.250Z,1.90
2019-02-17T11:07:19.804Z,3.43
2019-02-17T11:09:46.122Z,1.77
2019-02-17T11:12:12.570Z,2.13
2019-02-17T11:14:39.034Z,11.07
2019-02-17T11:17:05.526Z,2.53
2019-02-17T11:19:33.901Z,2.67
2019-02-17T11:22:00.309Z,3.83
2019-02-17T11:24:26.671Z,3.50
2019-02-17T11:26:53.221Z,1.97
2019-02-17T11:29:19.713Z,4.43
2019-02-17T11:31:46.257Z,2.73
2019-02-17T11:34:12.722Z,3.40
2019-02-17T11:36:39.444Z,3.83
2019-02-17T11:39:09.933Z,3.53
2019-02-17T11:41:36.250Z,8.73
2019-02-17T11:44:02.706Z,5.90
2019-02-17T11:46:29.160Z,2.97
2019-02-17T11:48:55.564Z,2.90
2019-02-17T11:51:22.251Z,2.30
2019-02-17T11:53:48.731Z,3.40
2019-02-17T11:56:15.320Z,2.40
2019-02-17T11:58:41.785Z,2.40
2019-02-17T12:01:08.385Z,2.47
2019-02-17T12:03:34.967Z,2.67
2019-02-17T12:06:01.415Z,3.83
2019-02-17T12:08:27.973Z,3.20
2019-02-17T12:10:54.341Z,3.07
2019-02-17T12:13:20.795Z,3.87
2019-02-17T12:15:47.123Z,6.20
2019-02-17T12:18:14.684Z,2.73
2019-02-17T12:20:46.174Z,3.27
2019-02-17T12:23:14.602Z,3.20
2019-02-17T12:25:42.969Z,3.77
2019-02-17T12:28:20.001Z,3.97
2019-02-17T12:30:48.177Z,1.23
2019-02-17T12:33:18.527Z,3.97
2019-02-17T12:35:43.222Z,3.57
2019-02-17T12:38:09.814Z,2.20
2019-02-17T12:40:36.526Z,1.97
2019-02-17T12:43:02.986Z,2.57
2019-02-17T12:45:29.603Z,3.53
2019-02-17T12:47:58.313Z,2.73
2019-02-17T12:50:24.490Z,5.03
2019-02-17T12:52:51.187Z,4.00
2019-02-17T12:55:17.729Z,3.17
2019-02-17T12:57:44.206Z,3.60
2019-02-17T13:00:14.546Z,2.90
2019-02-17T13:02:41.006Z,2.63
2019-02-17T13:05:08.524Z,13.07
2019-02-17T13:07:35.489Z,1.90
2019-02-17T13:10:02.232Z,2.57
2019-02-17T13:12:28.821Z,2.20
2019-02-17T13:14:55.446Z,2.03
2019-02-17T13:17:25.038Z,2.20
2019-02-17T13:19:51.572Z,2.27
2019-02-17T13:22:17.911Z,2.37
2019-02-17T13:24:44.490Z,2.40
2019-02-17T13:27:10.902Z,1.40
2019-02-17T13:29:37.439Z,2.27
2019-02-17T13:32:04.044Z,2.73
2019-02-17T13:34:30.472Z,2.50
2019-02-17T13:36:57.133Z,3.87
2019-02-17T13:39:23.705Z,1.50
2019-02-17T13:41:50.238Z,3.27
2019-02-17T13:44:16.819Z,3.50
2019-02-17T13:46:43.413Z,3.83
2019-02-17T13:49:09.944Z,3.50
2019-02-17T13:51:36.534Z,7.20
2019-02-17T13:54:03.226Z,3.40
2019-02-17T13:56:29.873Z,6.33
2019-02-17T13:58:56.599Z,3.37
2019-02-17T14:01:23.750Z,3.20
2019-02-17T14:03:50.138Z,3.60
2019-02-17T14:06:16.491Z,2.83
2019-02-17T14:08:43.131Z,3.53
2019-02-17T14:11:09.632Z,3.33
2019-02-17T14:13:36.148Z,1.67
2019-02-17T14:16:02.753Z,2.47
2019-02-17T14:18:29.434Z,3.63
2019-02-17T14:20:55.987Z,2.23
2019-02-17T14:23:22.617Z,2.63
2019-02-17T14:25:49.231Z,5.10
2019-02-17T14:28:15.740Z,3.73
2019-02-17T14:30:42.538Z,2.30
2019-02-17T14:33:09.191Z,6.53
2019-02-17T14:35:35.808Z,2.00
2019-02-17T14:38:03.298Z,2.83
2019-02-17T14:40:29.568Z,2.20
2019-02-17T14:42:56.151Z,1.80
2019-02-17T14:45:22.696Z,2.60
2019-02-17T14:47:49.170Z,2.83
2019-02-17T14:50:15.634Z,4.17
2019-02-17T14:52:42.163Z,3.40
2019-02-17T14:55:09.745Z,2.83
2019-02-17T14:57:36.349Z,2.10
2019-02-17T15:00:06.510Z,2.60
2019-02-17T15:02:33.110Z,3.60
2019-02-17T15:04:59.595Z,4.97
2019-02-17T15:07:26.049Z,3.27
2019-02-17T15:09:52.519Z,3.13
2019-02-17T15:12:19.465Z,3.20
2019-02-17T15:14:46.396Z,3.30
2019-02-17T15:17:14.823Z,3.97
2019-02-17T15:19:41.808Z,2.43
2019-02-17T15:22:08.447Z,2.47
2019-02-17T15:24:35.070Z,2.63
2019-02-17T15:27:01.578Z,4.23
2019-02-17T15:29:28.230Z,2.30
2019-02-17T15:31:54.832Z,2.57
2019-02-17T15:34:21.326Z,1.97
2019-02-17T15:36:47.847Z,4.03
2019-02-17T15:39:14.501Z,3.03
2019-02-17T15:41:40.994Z,2.17
2019-02-17T15:44:07.489Z,2.70
2019-02-17T15:46:34.083Z,2.37
2019-02-17T15:49:00.585Z,2.60
2019-02-17T15:51:26.889Z,3.77
2019-02-17T15:53:53.397Z,3.03
2019-02-17T15:56:21.732Z,4.83
2019-02-17T15:58:48.132Z,2.83
2019-02-17T16:01:14.514Z,2.50
2019-02-17T16:03:40.896Z,2.93
2019-02-17T16:06:07.422Z,3.33
2019-02-17T16:08:33.911Z,3.30
2019-02-17T16:11:00.408Z,2.60
2019-02-17T16:13:26.761Z,3.13
2019-02-17T16:15:53.305Z,3.27
2019-02-17T16:18:19.748Z,2.50
2019-02-17T16:20:46.144Z,3.30
2019-02-17T16:23:12.647Z,2.80
2019-02-17T16:25:39.181Z,3.23
2019-02-17T16:28:05.781Z,3.33
2019-02-17T16:30:32.131Z,4.50
2019-02-17T16:32:58.645Z,4.13
2019-02-17T16:35:25.038Z,3.60
2019-02-17T16:37:51.537Z,3.27
2019-02-17T16:40:18.117Z,2.57
2019-02-17T16:42:44.861Z,3.70
2019-02-17T16:45:12.479Z,3.30
2019-02-17T16:47:38.954Z,2.47
2019-02-17T16:50:11.362Z,3.70
2019-02-17T16:52:37.956Z,2.77
2019-02-17T16:55:06.743Z,4.60
2019-02-17T16:57:33.189Z,3.90
2019-02-17T16:59:59.554Z,5.13
2019-02-17T17:02:26.051Z,4.67
2019-02-17T17:04:52.406Z,4.07
2019-02-17T17:07:18.889Z,4.63
2019-02-17T17:09:45.463Z,2.60
2019-02-17T17:12:11.913Z,3.80
2019-02-17T17:14:38.482Z,5.47
2019-02-17T17:17:04.991Z,3.33
2019-02-17T17:19:31.673Z,2.87
2019-02-17T17:21:58.206Z,3.50
2019-02-17T17:24:24.723Z,2.87
2019-02-17T17:26:51.093Z,4.97
2019-02-17T17:29:17.594Z,4.03
2019-02-17T17:31:43.919Z,4.30
2019-02-17T17:34:10.569Z,2.80
2019-02-17T17:36:37.070Z,3.10
2019-02-17T17:39:04.645Z,3.47
2019-02-17T17:41:31.014Z,3.27
2019-02-17T17:43:57.662Z,2.73
2019-02-17T17:46:24.178Z,2.77
2019-02-17T17:48:50.625Z,3.10
2019-02-17T17:51:17.104Z,6.10
2019-02-17T17:53:43.581Z,5.70
2019-02-17T17:56:10.244Z,2.90
2019-02-17T17:58:36.634Z,2.50
2019-02-17T18:01:03.298Z,7.10
2019-02-17T18:03:29.754Z,3.33
2019-02-17T18:05:56.129Z,3.70
2019-02-17T18:08:22.742Z,3.33
2019-02-17T18:10:49.282Z,2.63
2019-02-17T18:13:15.791Z,2.73
2019-02-17T18:15:42.474Z,3.57
2019-02-17T18:18:09.456Z,2.50
2019-02-17T18:20:37.759Z,2.73
2019-02-17T18:23:04.168Z,3.63
2019-02-17T18:25:30.544Z,2.90
2019-02-17T18:27:56.969Z,2.60
2019-02-17T18:30:23.785Z,2.97
2019-02-17T18:32:50.311Z,2.43
2019-02-17T18:35:20.164Z,3.43
2019-02-17T18:37:45.187Z,3.00
2019-02-17T18:40:13.316Z,3.60
2019-02-17T18:42:39.821Z,3.37
2019-02-17T18:45:08.965Z,3.50
2019-02-17T18:47:35.485Z,3.30
2019-02-17T18:50:02.550Z,5.07
2019-02-17T18:52:29.028Z,4.40
2019-02-17T18:54:55.638Z,3.90
2019-02-17T18:57:21.891Z,3.00
2019-02-17T18:59:48.679Z,2.37
2019-02-17T19:02:20.814Z,2.73
2019-02-17T19:04:47.695Z,2.67
2019-02-17T19:07:14.132Z,3.20
2019-02-17T19:09:40.615Z,5.00
2019-02-17T19:12:07.114Z,3.00
2019-02-17T19:14:33.634Z,3.60
2019-02-17T19:17:00.100Z,3.70
2019-02-17T19:19:26.629Z,2.67
2019-02-17T19:21:53.528Z,3.83
2019-02-17T19:24:20.085Z,3.10
2019-02-17T19:26:46.603Z,2.43
2019-02-17T19:29:13.093Z,2.20
2019-02-17T19:31:39.584Z,2.87
2019-02-17T19:34:05.975Z,3.50
2019-02-17T19:36:32.445Z,2.80
2019-02-17T19:38:58.988Z,1.97
2019-02-17T19:41:25.568Z,2.20
2019-02-17T19:43:51.966Z,3.60
2019-02-17T19:46:18.467Z,2.87
2019-02-17T19:48:44.986Z,2.80
2019-02-17T19:51:11.558Z,2.57
2019-02-17T19:53:37.959Z,3.23
2019-02-17T19:56:04.438Z,2.57
2019-02-17T19:58:30.703Z,2.80
2019-02-17T20:00:57.282Z,3.40
2019-02-17T20:03:25.595Z,2.80
2019-02-17T20:05:59.545Z,3.00
2019-02-17T20:08:27.783Z,2.30
2019-02-17T20:10:55.525Z,2.90
2019-02-17T20:13:22.054Z,3.83
2019-02-17T20:15:48.426Z,2.77
2019-02-17T20:18:14.904Z,3.17
2019-02-17T20:20:41.318Z,2.93
2019-02-17T20:23:07.675Z,5.20
2019-02-17T20:25:34.240Z,3.03
2019-02-17T20:28:00.510Z,8.63
2019-02-17T20:30:26.893Z,2.77
2019-02-17T20:32:53.268Z,3.97
2019-02-17T20:35:19.851Z,3.73
2019-02-17T20:37:46.490Z,2.97
2019-02-17T20:40:15.287Z,2.90
2019-02-17T20:42:41.730Z,3.67
2019-02-17T20:45:09.429Z,13.50
2019-02-17T20:47:35.897Z,3.70
2019-02-17T20:50:04.101Z,2.63
2019-02-17T20:52:30.430Z,2.43
2019-02-17T20:54:56.715Z,2.50
2019-02-17T20:57:23.224Z,3.10
2019-02-17T20:59:49.582Z,2.93
2019-02-17T21:02:16.062Z,2.37
2019-02-17T21:04:43.103Z,3.40
2019-02-17T21:07:09.719Z,2.13
2019-02-17T21:09:36.301Z,3.00
2019-02-17T21:12:02.765Z,4.23
2019-02-17T21:14:29.250Z,3.97
2019-02-17T21:16:55.645Z,3.67
2019-02-17T21:19:22.114Z,4.70
2019-02-17T21:21:48.621Z,5.60
2019-02-17T21:24:15.095Z,4.30
2019-02-17T21:26:41.467Z,3.50
2019-02-17T21:29:07.796Z,3.53
2019-02-17T21:31:34.169Z,3.50
2019-02-17T21:34:00.658Z,2.50
2019-02-17T21:36:27.168Z,3.43
2019-02-17T21:38:53.627Z,3.00
2019-02-17T21:41:20.083Z,2.67
2019-02-17T21:43:46.516Z,3.23
2019-02-17T21:46:12.926Z,3.20
2019-02-17T21:48:39.282Z,2.83
2019-02-17T21:51:05.843Z,2.20
2019-02-17T21:53:32.254Z,1.90
2019-02-17T21:55:58.510Z,2.17
2019-02-17T21:58:24.913Z,2.43
2019-02-17T22:00:51.387Z,2.43
2019-02-17T22:03:17.865Z,2.47
2019-02-17T22:05:44.434Z,2.70
2019-02-17T22:08:10.945Z,2.50
2019-02-17T22:10:37.514Z,1.80
2019-02-17T22:13:03.797Z,3.33
2019-02-17T22:15:32.091Z,3.07
2019-02-17T22:17:58.585Z,3.00
2019-02-17T22:20:24.970Z,1.90
2019-02-17T22:22:51.437Z,2.73
2019-02-17T22:25:17.932Z,2.20
2019-02-17T22:27:44.528Z,2.17
2019-02-17T22:30:12.360Z,2.40
2019-02-17T22:32:38.827Z,2.40
2019-02-17T22:35:05.426Z,2.60
2019-02-17T22:37:31.885Z,1.80
2019-02-17T22:39:58.447Z,1.90
2019-02-17T22:42:24.847Z,2.17
2019-02-17T22:44:51.302Z,1.80
2019-02-17T22:47:17.663Z,1.70
2019-02-17T22:49:44.205Z,1.97
2019-02-17T22:52:10.506Z,2.43
2019-02-17T22:54:37.005Z,1.60
2019-02-17T22:57:03.498Z,2.20
2019-02-17T22:59:30.117Z,1.87
2019-02-17T23:01:56.607Z,1.77
2019-02-17T23:04:23.113Z,2.03
2019-02-17T23:06:54.074Z,2.57
2019-02-17T23:09:17.793Z,1.90
2019-02-17T23:11:44.212Z,2.20
2019-02-17T23:14:10.652Z,2.00
2019-02-17T23:16:37.022Z,1.70
2019-02-17T23:19:03.528Z,1.63
2019-02-17T23:21:30.118Z,2.30
2019-02-17T23:23:56.714Z,2.17
2019-02-17T23:26:23.118Z,1.77
2019-02-17T23:28:49.703Z,2.30
2019-02-17T23:31:16.229Z,1.67
2019-02-17T23:33:42.685Z,2.27
2019-02-17T23:36:09.101Z,2.07
2019-02-17T23:38:35.473Z,1.70
2019-02-17T23:41:02.075Z,2.00
2019-02-17T23:43:28.377Z,1.83
2019-02-17T23:45:54.666Z,1.60
2019-02-17T23:48:21.038Z,2.00
2019-02-17T23:50:47.546Z,1.60
2019-02-17T23:53:14.013Z,2.63
2019-02-17T23:55:40.401Z,2.23
2019-02-17T23:58:06.851Z,2.00
